Flight Track Log - Related Links

Times and Time Zones

All times are in EDT time to prevent confusion due to time zone crossing. See the N911DE flight status page for this flight to view local times or setup timezone preferences in your user account.

Time Position Orientation Groundspeed Altitude Reporting Facility
EDT Latitude Longitude Course Direction KTS MPH feet Rate Location/Type
Fri 01:58:27 PM 33.6311 -84.3756 113° Southeast 441 507 2,300  Level Atlanta Center
Fri 01:59:27 PM 33.6042 -84.3008 159° South 331 381 4,700 2,703 Climbing Atlanta Center
Fri 01:59:58 PM 33.5667 -84.2833 177° South 276 318 6,400 2,233 Climbing Atlanta TRACON
Fri 02:02:27 PM 33.3786 -84.2728 140° Southeast 293 337 11,400 1,923 Climbing Atlanta Center
Fri 02:03:27 PM 33.3017 -84.1953 140° Southeast 335 386 13,100 2,150 Climbing Atlanta Center
Fri 02:04:27 PM 33.2181 -84.1108 140° Southeast 373 429 15,700 2,300 Climbing Atlanta Center
Fri 02:05:27 PM 33.1325 -84.0239 143° Southeast 396 456 17,700 2,150 Climbing Atlanta Center
Fri 02:06:27 PM 33.0281 -83.9297 147° Southeast 420 483 20,000 1,900 Climbing Atlanta Center
Fri 02:07:27 PM 32.9467 -83.8656 145° Southeast 427 491 21,500 1,800 Climbing Atlanta Center
Fri 02:08:27 PM 32.8358 -83.7719 144° Southeast 440 506 23,600 1,250 Climbing Atlanta Center
Fri 02:09:27 PM 32.7375 -83.6881 142° Southeast 440 506 24,000 200 Climbing Atlanta Center
Fri 02:10:27 PM 32.6414 -83.5997 140° Southeast 445 512 24,000  Level Atlanta Center
Fri 02:11:27 PM 32.5492 -83.5067 140° Southeast 445 512 24,000  Level Atlanta Center
Fri 02:12:27 PM 32.4589 -83.4183 140° Southeast 440 506 24,000  Level Atlanta Center
Fri 02:13:34 PM 32.3494 -83.3081 140° Southeast 448 516 24,000  Level Jacksonville Center
Fri 02:14:34 PM 32.2497 -83.2094 140° Southeast 448 516 24,000  Level Jacksonville Center
Fri 02:15:34 PM 32.1558 -83.1158 140° Southeast 448 516 24,000  Level Jacksonville Center
Fri 02:16:34 PM 32.0642 -83.0250 140° Southeast 448 516 24,000  Level Jacksonville Center
Fri 02:17:35 PM 31.9703 -82.9317 140° Southeast 448 516 24,000  Level Jacksonville Center
Fri 02:18:34 PM 31.8783 -82.8411 140° Southeast 448 516 24,000  Level Jacksonville Center
Fri 02:19:34 PM 31.7864 -82.7508 141° Southeast 443 510 24,000  Level Jacksonville Center
Fri 02:20:34 PM 31.6925 -82.6606 140° Southeast 443 510 24,000 -750 Level Jacksonville Center
Fri 02:21:34 PM 31.6003 -82.5706 144° Southeast 443 510 22,500 -1,450 Descending Jacksonville Center
Fri 02:22:34 PM 31.5061 -82.4906 158° South 433 498 21,100 -750 Descending Jacksonville Center
Fri 02:23:34 PM 31.3994 -82.4397 157° South 416 479 21,000 -50 Descending Jacksonville Center
Fri 02:24:34 PM 31.2928 -82.3869 158° South 411 473 21,000 -1,650 Level Jacksonville Center
Fri 02:25:34 PM 31.1881 -82.3364 157° South 411 473 17,700 -3,176 Descending Jacksonville Center
Fri 02:26:33 PM 31.0856 -82.2861 156° South 418 481 14,700 -2,824 Descending Jacksonville Center
Fri 02:27:33 PM 30.9808 -82.2311 154° Southeast 400 460 12,100 -1,426 Descending Jacksonville Center
Fri 02:28:35 PM 30.8847 -82.1761 155° Southeast 399 459 11,800 -492 Descending Jacksonville Center
Fri 02:29:35 PM 30.7967 -82.1283 125° Southeast 333 383 11,100 -900 Descending Jacksonville Center
Fri 02:30:35 PM 30.7503 -82.0514 116° Southeast 302 348 10,000 -1,266 Descending Jacksonville Center
Fri 02:31:43 PM 30.7100 -81.9550 114° Southeast 298 343 8,400 -1,700 Descending Jacksonville Center
Fri 02:32:35 PM 30.6800 -81.8756 116° Southeast 297 342 6,600 -2,036 Descending Jacksonville Center
Fri 02:33:35 PM 30.6461 -81.7964 116° Southeast 282 325 4,600 -1,800 Descending Jacksonville Center
Fri 02:34:35 PM 30.6139 -81.7194 105° East 277 319 3,000 -913 Descending Jacksonville Center
Fri 02:35:53 PM 30.5922 -81.6256 109° East 201 231 2,500 -451 Descending Jacksonville Center
Fri 02:36:48 PM 30.5769 -81.5728 183° South 190 219 2,000 -492 Descending Jacksonville Center
Fri 02:37:55 PM 30.5333 -81.5758 254° West 182 209 1,500 -492 Descending Jacksonville Center
Fri 02:38:50 PM 30.5211 -81.6242 250° West 166 191 1,000 -672 Descending Jacksonville Center
Fri 02:39:51 PM 30.5069 -81.6703 250° West 158 182 200 -787 Descending Jacksonville Center

Login

Don't have an account? Register now (free) for customized features, flight alerts, and more!